createdAt,value
2018-06-11T00:03:56.079Z,99262.02
2018-06-11T00:07:59.505Z,99264.79
2018-06-11T00:12:02.948Z,99250.98
2018-06-11T00:16:06.413Z,99257.48
2018-06-11T00:20:09.943Z,99260.94
2018-06-11T00:24:13.403Z,99257.95
2018-06-11T00:28:16.845Z,99262.84
2018-06-11T00:32:20.438Z,99261.19
2018-06-11T00:36:23.820Z,99258.70
2018-06-11T00:40:27.310Z,99260.68
2018-06-11T00:44:30.746Z,99263.58
2018-06-11T00:48:34.178Z,99268.27
2018-06-11T00:52:37.654Z,99261.50
2018-06-11T00:56:41.085Z,99267.86
2018-06-11T01:00:44.537Z,99269.00
2018-06-11T01:04:48.023Z,99270.80
2018-06-11T01:08:51.446Z,99275.13
2018-06-11T01:12:54.904Z,99280.16
2018-06-11T01:16:58.354Z,99280.23
2018-06-11T01:21:01.783Z,99282.84
2018-06-11T01:25:05.285Z,99279.39
2018-06-11T01:29:08.742Z,99274.95
2018-06-11T01:33:12.199Z,99277.36
2018-06-11T01:37:15.654Z,99273.90
2018-06-11T01:41:19.094Z,99277.13
2018-06-11T01:45:22.537Z,99278.19
2018-06-11T01:49:26.014Z,99267.33
2018-06-11T01:53:29.459Z,99279.59
2018-06-11T01:57:34.001Z,99274.30
2018-06-11T02:01:37.462Z,99275.44
2018-06-11T02:05:40.974Z,99275.13
2018-06-11T02:09:44.478Z,99270.03
2018-06-11T02:13:47.915Z,99271.63
2018-06-11T02:17:51.381Z,99278.03
2018-06-11T02:21:54.862Z,99284.37
2018-06-11T02:25:58.307Z,99279.73
2018-06-11T02:30:01.735Z,99276.84
2018-06-11T02:34:05.184Z,99277.47
2018-06-11T02:38:08.660Z,99281.69
2018-06-11T02:42:12.132Z,99280.80
2018-06-11T02:46:15.592Z,99275.84
2018-06-11T02:50:19.002Z,99283.48
2018-06-11T02:54:22.489Z,99293.53
2018-06-11T02:58:25.972Z,99290.16
2018-06-11T03:02:29.409Z,99295.16
2018-06-11T03:06:32.915Z,99290.97
2018-06-11T03:10:36.346Z,99291.50
2018-06-11T03:14:39.956Z,99288.45
2018-06-11T03:18:43.431Z,99292.72
2018-06-11T03:22:46.914Z,99298.08
2018-06-11T03:26:50.375Z,99306.98
2018-06-11T03:30:53.864Z,99302.11
2018-06-11T03:34:57.322Z,99313.97
2018-06-11T03:39:00.794Z,99320.76
2018-06-11T03:43:04.383Z,99318.64
2018-06-11T03:47:07.802Z,99318.64
2018-06-11T03:51:12.196Z,99313.64
2018-06-11T03:55:15.608Z,99320.36
2018-06-11T03:59:19.069Z,99319.41
2018-06-11T04:03:22.519Z,99330.07
2018-06-11T04:07:26.011Z,99330.36
2018-06-11T04:11:29.464Z,99334.60
2018-06-11T04:15:32.969Z,99324.43
2018-06-11T04:19:36.420Z,99348.34
2018-06-11T04:23:39.867Z,99351.36
2018-06-11T04:27:43.431Z,99354.73
2018-06-11T04:31:46.861Z,99356.89
2018-06-11T04:35:50.309Z,99364.38
2018-06-11T04:39:53.768Z,99378.34
2018-06-11T04:43:57.197Z,99379.41
2018-06-11T04:48:00.676Z,99383.81
2018-06-11T04:52:04.115Z,99384.63
2018-06-11T04:56:07.603Z,99389.97
2018-06-11T05:00:11.040Z,99396.48
2018-06-11T05:04:14.482Z,99393.09
2018-06-11T05:08:17.953Z,99406.19
2018-06-11T05:12:21.384Z,99405.77
2018-06-11T05:16:24.846Z,99408.91
2018-06-11T05:20:28.316Z,99415.14
2018-06-11T05:24:31.736Z,99410.83
2018-06-11T05:28:41.509Z,99403.64
2018-06-11T05:32:44.895Z,99419.08
2018-06-11T05:36:48.332Z,99412.27
2018-06-11T05:40:51.738Z,99414.19
2018-06-11T05:44:55.171Z,99408.16
2018-06-11T05:48:58.603Z,99413.30
2018-06-11T05:53:02.075Z,99411.23
2018-06-11T05:57:05.785Z,99414.91
2018-06-11T06:01:09.255Z,99403.41
2018-06-11T06:05:12.709Z,99410.59
2018-06-11T06:09:16.152Z,99418.98
2018-06-11T06:13:19.598Z,99420.70
2018-06-11T06:17:23.051Z,99422.45
2018-06-11T06:21:26.478Z,99417.30
2018-06-11T06:25:29.904Z,99422.35
2018-06-11T06:29:33.314Z,99418.61
2018-06-11T06:33:36.758Z,99413.06
2018-06-11T06:37:40.226Z,99407.98
2018-06-11T06:41:43.681Z,99410.06
2018-06-11T06:45:47.081Z,99404.23
2018-06-11T06:49:50.514Z,99391.02
2018-06-11T06:53:53.998Z,99394.47
2018-06-11T06:57:57.505Z,99392.77
2018-06-11T07:02:00.917Z,99385.14
2018-06-11T07:06:04.368Z,99388.60
2018-06-11T07:10:07.931Z,99383.34
2018-06-11T07:14:11.374Z,99379.16
2018-06-11T07:18:14.805Z,99379.42
2018-06-11T07:22:18.257Z,99367.85
2018-06-11T07:26:21.685Z,99366.11
2018-06-11T07:30:25.127Z,99365.52
2018-06-11T07:34:28.531Z,99359.88
2018-06-11T07:38:31.980Z,99355.07
2018-06-11T07:42:35.391Z,99351.84
2018-06-11T07:46:38.831Z,99348.48
2018-06-11T07:50:42.296Z,99350.69
2018-06-11T07:54:45.742Z,99349.96
2018-06-11T07:58:49.231Z,99342.55
2018-06-11T08:02:52.707Z,99341.68
2018-06-11T08:06:56.194Z,99341.22
2018-06-11T08:10:59.643Z,99335.24
2018-06-11T08:15:03.061Z,99336.45
2018-06-11T08:19:06.559Z,99326.28
2018-06-11T08:23:10.021Z,99333.00
2018-06-11T08:27:13.483Z,99325.82
2018-06-11T08:31:16.939Z,99316.15
2018-06-11T08:35:20.402Z,99323.98
2018-06-11T08:39:23.867Z,99327.89
2018-06-11T08:43:27.316Z,99329.59
2018-06-11T08:47:30.775Z,99320.50
2018-06-11T08:51:34.199Z,99320.83
2018-06-11T08:55:37.655Z,99322.51
2018-06-11T08:59:41.085Z,99318.88
2018-06-11T09:03:44.522Z,99308.64
2018-06-11T09:07:47.997Z,99304.02
2018-06-11T09:11:51.404Z,99306.92
2018-06-11T09:15:54.854Z,99311.00
2018-06-11T09:19:58.267Z,99317.91
2018-06-11T09:24:01.786Z,99309.16
2018-06-11T09:28:05.179Z,99310.14
2018-06-11T09:32:08.632Z,99308.30
2018-06-11T09:36:12.455Z,99305.71
2018-06-11T09:40:15.931Z,99312.03
2018-06-11T09:44:19.384Z,99303.82
2018-06-11T09:48:22.836Z,99314.57
2018-06-11T09:52:26.283Z,99313.48
2018-06-11T09:56:29.739Z,99319.62
2018-06-11T10:00:36.187Z,99316.13
2018-06-11T10:04:39.647Z,99316.23
2018-06-11T10:08:43.118Z,99316.95
2018-06-11T10:12:46.569Z,99319.42
2018-06-11T10:16:50.002Z,99320.70
2018-06-11T10:20:53.480Z,99314.41
2018-06-11T10:24:56.921Z,99311.50
2018-06-11T10:29:00.418Z,99314.94
2018-06-11T10:33:03.847Z,99309.70
2018-06-11T10:37:07.278Z,99308.25
2018-06-11T10:41:10.709Z,99308.53
2018-06-11T10:45:14.145Z,99300.44
2018-06-11T10:49:17.595Z,99307.69
2018-06-11T10:53:21.029Z,99295.84
2018-06-11T10:57:24.466Z,99291.27
2018-06-11T11:01:27.902Z,99291.20
2018-06-11T11:05:31.350Z,99291.03
2018-06-11T11:09:34.797Z,99284.28
2018-06-11T11:13:38.233Z,99289.25
2018-06-11T11:17:41.660Z,99302.08
2018-06-11T11:21:45.110Z,99291.82
2018-06-11T11:25:48.618Z,99277.78
2018-06-11T11:29:52.032Z,99264.99
2018-06-11T11:33:55.467Z,99278.63
2018-06-11T11:37:58.893Z,99277.91
2018-06-11T11:42:02.326Z,99276.80
2018-06-11T11:46:05.834Z,99262.34
2018-06-11T11:50:09.368Z,99266.73
2018-06-11T11:54:12.880Z,99268.86
2018-06-11T11:58:16.302Z,99266.06
2018-06-11T12:02:19.722Z,99260.88
2018-06-11T12:06:23.202Z,99254.98
2018-06-11T12:10:26.664Z,99244.86
2018-06-11T12:14:30.112Z,99239.33
2018-06-11T12:18:33.535Z,99230.75
2018-06-11T12:22:36.934Z,99228.58
2018-06-11T12:26:40.382Z,99222.87
2018-06-11T12:30:43.827Z,99211.79
2018-06-11T12:34:47.230Z,99203.78
2018-06-11T12:38:50.688Z,99194.28
2018-06-11T12:42:54.167Z,99183.68
2018-06-11T12:46:57.616Z,99189.17
2018-06-11T12:51:01.010Z,99179.26
2018-06-11T12:55:04.485Z,99166.06
2018-06-11T12:59:07.946Z,99154.45
2018-06-11T13:03:11.385Z,99156.23
2018-06-11T13:07:14.822Z,99161.32
2018-06-11T13:11:18.231Z,99152.33
2018-06-11T13:15:21.705Z,99147.31
2018-06-11T13:19:25.129Z,99146.61
2018-06-11T13:23:28.592Z,99139.80
2018-06-11T13:27:32.056Z,99138.52
2018-06-11T13:31:35.484Z,99135.14
2018-06-11T13:35:38.967Z,99133.00
2018-06-11T13:39:42.425Z,99132.59
2018-06-11T13:43:46.674Z,99136.14
2018-06-11T13:47:50.147Z,99129.98
2018-06-11T13:51:53.594Z,99126.19
2018-06-11T13:55:57.067Z,99125.61
2018-06-11T14:00:00.500Z,99120.78
2018-06-11T14:04:03.991Z,99117.58
2018-06-11T14:08:07.512Z,99114.81
2018-06-11T14:12:10.974Z,99113.45
2018-06-11T14:16:14.498Z,99108.27
2018-06-11T14:20:17.946Z,99104.63
2018-06-11T14:24:21.363Z,99101.09
2018-06-11T14:28:24.783Z,99101.19
2018-06-11T14:32:28.233Z,99103.25
2018-06-11T14:36:31.679Z,99100.05
2018-06-11T14:40:35.111Z,99092.69
2018-06-11T14:44:38.552Z,99094.41
2018-06-11T14:48:42.021Z,99085.54
2018-06-11T14:52:45.502Z,99085.54
2018-06-11T14:56:48.951Z,99083.08
2018-06-11T15:00:52.396Z,99069.09
2018-06-11T15:04:55.869Z,99061.40
2018-06-11T15:08:59.290Z,99056.43
2018-06-11T15:13:02.798Z,99060.30
2018-06-11T15:17:06.261Z,99057.72
2018-06-11T15:21:09.687Z,99051.36
2018-06-11T15:25:13.131Z,99044.69
2018-06-11T15:29:16.597Z,99049.08
2018-06-11T15:33:20.004Z,99044.95
2018-06-11T15:37:23.493Z,99038.14
2018-06-11T15:41:26.932Z,99026.73
2018-06-11T15:45:30.407Z,99025.04
2018-06-11T15:49:33.895Z,99013.23
2018-06-11T15:53:37.366Z,99010.10
2018-06-11T15:57:40.832Z,99010.73
2018-06-11T16:01:44.228Z,99019.11
2018-06-11T16:05:47.671Z,99006.42
2018-06-11T16:09:51.155Z,98999.88
2018-06-11T16:13:54.624Z,99000.09
2018-06-11T16:17:58.101Z,98991.12
2018-06-11T16:22:01.552Z,98986.27
2018-06-11T16:26:05.012Z,98984.30
2018-06-11T16:30:08.475Z,98978.97
2018-06-11T16:34:11.910Z,98977.53
2018-06-11T16:38:15.386Z,98977.83
2018-06-11T16:42:18.820Z,98980.87
2018-06-11T16:46:22.320Z,98986.38
2018-06-11T16:50:25.790Z,98978.02
2018-06-11T16:54:29.236Z,98979.81
2018-06-11T16:58:32.745Z,98976.39
2018-06-11T17:02:36.162Z,98983.00
2018-06-11T17:06:39.606Z,98978.55
2018-06-11T17:10:43.201Z,98971.56
2018-06-11T17:14:47.851Z,98969.90
2018-06-11T17:18:51.334Z,98976.05
2018-06-11T17:22:54.779Z,98957.77
2018-06-11T17:26:58.271Z,98958.34
2018-06-11T17:31:01.721Z,98947.41
2018-06-11T17:35:05.129Z,98946.85
2018-06-11T17:39:08.666Z,98948.30
2018-06-11T17:43:12.102Z,98959.03
2018-06-11T17:47:15.553Z,98953.88
2018-06-11T17:51:19.019Z,98960.30
2018-06-11T17:55:22.486Z,98957.53
2018-06-11T17:59:25.940Z,98951.58
2018-06-11T18:03:29.407Z,98956.92
2018-06-11T18:07:32.898Z,98957.85
2018-06-11T18:11:36.679Z,98962.80
2018-06-11T18:15:40.134Z,98965.72
2018-06-11T18:19:43.563Z,98968.98
2018-06-11T18:23:47.030Z,98958.34
2018-06-11T18:27:50.537Z,98954.72
2018-06-11T18:31:53.962Z,98948.64
2018-06-11T18:35:57.447Z,98954.05
2018-06-11T18:40:00.830Z,98955.98
2018-06-11T18:44:04.475Z,98953.09
2018-06-11T18:48:07.939Z,98962.14
2018-06-11T18:52:11.360Z,98962.39
2018-06-11T18:56:14.794Z,98962.58
2018-06-11T19:00:18.221Z,98970.58
2018-06-11T19:04:21.628Z,98957.00
2018-06-11T19:08:25.108Z,98954.73
2018-06-11T19:12:28.570Z,98960.86
2018-06-11T19:16:32.011Z,98954.89
2018-06-11T19:20:35.457Z,98955.41
2018-06-11T19:24:38.891Z,98955.80
2018-06-11T19:28:42.337Z,98951.66
2018-06-11T19:32:45.792Z,98951.45
2018-06-11T19:36:49.232Z,98948.54
2018-06-11T19:40:52.719Z,98949.17
2018-06-11T19:44:56.099Z,98953.02
2018-06-11T19:48:59.540Z,98963.55
2018-06-11T19:53:03.015Z,98959.14
2018-06-11T19:57:06.439Z,98962.00
2018-06-11T20:01:09.896Z,98964.58
2018-06-11T20:05:13.409Z,98952.90
2018-06-11T20:09:16.844Z,98939.98
2018-06-11T20:13:20.308Z,98932.87
2018-06-11T20:17:23.766Z,98918.86
2018-06-11T20:21:27.211Z,98911.15
2018-06-11T20:25:30.635Z,98909.44
2018-06-11T20:29:34.088Z,98900.34
2018-06-11T20:33:37.513Z,98897.06
2018-06-11T20:37:40.991Z,98898.05
2018-06-11T20:41:44.448Z,98895.49
2018-06-11T20:45:47.896Z,98890.42
2018-06-11T20:49:51.348Z,98894.49
2018-06-11T20:53:54.787Z,98903.09
2018-06-11T20:57:58.279Z,98895.37
2018-06-11T21:02:01.752Z,98897.34
2018-06-11T21:06:05.186Z,98880.16
2018-06-11T21:10:08.745Z,98881.25
2018-06-11T21:14:12.152Z,98883.00
2018-06-11T21:18:15.595Z,98874.63
2018-06-11T21:22:19.067Z,98863.33
2018-06-11T21:26:22.493Z,98878.32
2018-06-11T21:30:25.963Z,98872.80
2018-06-11T21:34:29.410Z,98866.52
2018-06-11T21:38:32.846Z,98855.92
2018-06-11T21:42:36.289Z,98864.14
2018-06-11T21:46:39.717Z,98856.44
2018-06-11T21:50:43.194Z,98857.17
2018-06-11T21:54:46.646Z,98847.83
2018-06-11T21:58:50.101Z,98832.72
2018-06-11T22:02:53.568Z,98828.31
2018-06-11T22:06:56.999Z,98828.17
2018-06-11T22:11:00.499Z,98822.16
2018-06-11T22:15:03.948Z,98813.59
2018-06-11T22:19:07.407Z,98803.87
2018-06-11T22:23:10.846Z,98802.52
2018-06-11T22:27:14.286Z,98799.09
2018-06-11T22:31:17.837Z,98777.48
2018-06-11T22:35:21.246Z,98765.19
2018-06-11T22:39:24.702Z,98766.31
2018-06-11T22:43:28.167Z,98762.38
2018-06-11T22:47:31.604Z,98745.56
2018-06-11T22:51:35.100Z,98739.17
2018-06-11T22:55:38.577Z,98744.22
2018-06-11T22:59:42.019Z,98740.80
2018-06-11T23:03:45.436Z,98737.33
2018-06-11T23:07:48.869Z,98737.60
2018-06-11T23:11:52.329Z,98739.92
2018-06-11T23:15:55.758Z,98730.70
2018-06-11T23:19:59.194Z,98728.13
2018-06-11T23:24:02.688Z,98726.16
2018-06-11T23:28:06.075Z,98718.77
2018-06-11T23:32:09.474Z,98728.95
2018-06-11T23:36:12.949Z,98724.41
2018-06-11T23:40:16.397Z,98722.70
2018-06-11T23:44:19.854Z,98733.50
2018-06-11T23:48:23.259Z,98730.42
2018-06-11T23:52:26.712Z,98725.73
2018-06-11T23:56:30.132Z,98704.76
